VABB Airport Information

Runway Information
Runway 09 Length 11302 ft width 148 ft
Elevation 15 ft Threshold 465 ft Heading 89
Runway 27 Length 11302 ft Width 148 ft
Elevation 22 ft Threshold 1581 ft Heading 269
Runway 14 Length 9596 ft width 150 ft
Elevation 37 ft Threshold 1238 ft Heading 134
Runway 32 Length 9596 ft Width 150 ft
Elevation 26 ft Threshold 853 ft Heading 314
Airport Frequencies
Type ACC Name MUMBAI Frequency 120.5 MHZ
Type APP Name MUMBAI APP Frequency 127.9 MHZ
Type ATIS Name MUMBAI ATI Frequency 126.4 MHZ
Type CLD Name MUMBAI CLR Frequency 121.85 MHZ
Type GND Name MUMBAI GND Frequency 121.9 MHZ
Type RDO Name MUMBAI RDO Frequency 1008.4 MHZ
Type RDR Name RDR Frequency 119.3 MHZ
Type TWR Name MUMBAI TWR Frequency 118.1 MHZ
Airport Navaids
Type VOR-DME Name Mumbai Frequency 116600 KHZ
Airport Weather Information & NOTAM
ADDS - METARS form results

(1942 UTC 25 April 2019)
Data provider http://aviationweather.gov/metar/data/
 
METAR text: VABB 251930Z 31006KT 3500 HZ NSC 29/24 Q1008 NOSIG
Conditions at: VABB (BOMBAY/SANTACRUZ, IN) observed 1930 UTC 25 April 2019
Temperature: 29.0°C (84°F)
Dewpoint: 24.0°C (75°F) [RH = 74%]
Pressure (altimeter): 29.76 inches Hg (1008.0 mb)
Winds: from the NW (310 degrees) at 7 MPH (6 knots; 3.1 m/s)
Visibility: 2.17 miles (3.49 km)
Ceiling: at least 12,000 feet AGL
Clouds: sky clear below 12,000 feet AGL
Weather: HZ  (haze)

METAR text: VABB 251900Z 29007KT 3500 HZ NSC 29/24 Q1008 NOSIG
Conditions at: VABB (BOMBAY/SANTACRUZ, IN) observed 1900 UTC 25 April 2019
Temperature: 29.0°C (84°F)
Dewpoint: 24.0°C (75°F) [RH = 74%]
Pressure (altimeter): 29.76 inches Hg (1008.0 mb)
Winds: from the WNW (290 degrees) at 8 MPH (7 knots; 3.6 m/s)
Visibility: 2.17 miles (3.49 km)
Ceiling: at least 12,000 feet AGL
Clouds: sky clear below 12,000 feet AGL
Weather: HZ  (haze)

Forecast for: VABB (BOMBAY/SANTACRUZ, IN)
Text: TAF VABB 251700Z 2518/2603 31006KT 3000 HZ FU NSC
Forecast period: 1800 to 2200 UTC 25 April 2019
Forecast type: FROM: standard forecast or significant change
Winds: from the NW (310 degrees) at 7 MPH (6 knots; 3.1 m/s)
Visibility: 1.86 miles (2.99 km)
Ceiling: unknown
Clouds: missing
Weather: HZ FU  (haze, smoke)
Text: BECMG 2522/2524 VRB03KT 2500 BR HZ FEW020
Forecast period: 2200 UTC 25 April 2019 to 0300 UTC 26 April 2019
Forecast type: BECOMING: Conditions expected to become as follows by 0000 UTC 26 April 2019
Winds: variable direction winds at 3 MPH (3 knots; 1.5 m/s)
Visibility: 1.55 miles (2.49 km)
Ceiling: at least 12,000 feet AGL
Clouds: few clouds at 2000 feet AGL
Weather: BR HZ  (mist, haze)